Time;durP1;ratioP1;P1;durP2;ratioP2;P2;SDS_P1;SDS_P2;PMS_P1;PMS_P2;Temp;Humidity;BMP_temperature;BMP_pressure;BME280_temperature;BME280_humidity;BME280_pressure;Samples;Min_cycle;Max_cycle;Signal;HPM_P1;HPM_P2
2022/09/10 00:02:07;;;;;;;44.55;41.05;;;;;;;;;;5052138;28;20098;-63
2022/09/10 00:04:34;;;;;;;45.53;42.13;;;;;;;;;;5067993;28;20465;-63
2022/09/10 00:07:00;;;;;;;46.80;43.35;;;;;;;;;;5052193;28;20017;-64
2022/09/10 00:09:26;;;;;;;45.28;41.88;;;;;;;;;;5050553;28;20021;-64
2022/09/10 00:11:52;;;;;;;45.63;42.08;;;;;;;;;;5052041;28;20021;-62
2022/09/10 00:14:20;;;;;;;45.50;41.72;;;;;;;;;;5051994;28;20070;-62
2022/09/10 00:16:47;;;;;;;46.00;42.17;;;;;;;;;;5051920;28;20108;-63
2022/09/10 00:19:13;;;;;;;46.30;42.28;;;;;;;;;;5051940;28;20033;-63
2022/09/10 00:21:39;;;;;;;45.95;42.55;;;;;;;;;;5051862;28;20052;-63
2022/09/10 00:24:06;;;;;;;45.50;41.50;;;;;;;;;;5051885;28;20031;-64
2022/09/10 00:26:34;;;;;;;47.25;43.85;;;;;;;;;;5051653;28;20564;-65
2022/09/10 00:29:00;;;;;;;46.30;42.67;;;;;;;;;;5050107;28;20032;-64
2022/09/10 00:31:27;;;;;;;45.78;42.42;;;;;;;;;;5051724;28;20031;-64
2022/09/10 00:33:53;;;;;;;46.50;43.08;;;;;;;;;;5051704;28;20070;-64
2022/09/10 00:36:23;;;;;;;44.35;40.95;;;;;;;;;;5051745;28;20108;-65
2022/09/10 00:38:50;;;;;;;44.13;40.60;;;;;;;;;;5055423;28;20032;-63
2022/09/10 00:41:17;;;;;;;45.15;41.38;;;;;;;;;;5056047;28;20032;-63
2022/09/10 00:43:55;;;;;;;44.13;40.75;;;;;;;;;;5056106;28;20037;-65
2022/09/10 00:46:41;;;;;;;42.33;38.78;;;;;;;;;;5055810;28;20036;-64
2022/09/10 00:49:16;;;;;;;43.00;39.70;;;;;;;;;;5055354;28;20049;-65
2022/09/10 00:51:43;;;;;;;42.35;39.08;;;;;;;;;;5054465;28;20025;-64
2022/09/10 00:54:09;;;;;;;42.78;39.33;;;;;;;;;;5055512;28;20025;-64
2022/09/10 00:56:36;;;;;;;42.60;39.35;;;;;;;;;;5055459;28;20039;-64
2022/09/10 00:59:04;;;;;;;43.95;40.47;;;;;;;;;;5054939;28;20028;-65
2022/09/10 01:01:32;;;;;;;43.78;40.38;;;;;;;;;;5055377;28;20158;-65
2022/09/10 01:03:58;;;;;;;41.67;38.53;;;;;;;;;;5055461;28;20021;-65
2022/09/10 01:06:24;;;;;;;42.63;39.20;;;;;;;;;;5055269;28;20104;-64
2022/09/10 01:08:50;;;;;;;40.63;37.17;;;;;;;;;;5055040;28;20668;-64
2022/09/10 01:11:16;;;;;;;39.90;36.80;;;;;;;;;;5054132;28;20013;-65
2022/09/10 01:13:43;;;;;;;39.17;35.88;;;;;;;;;;5053930;28;20028;-64
2022/09/10 01:16:14;;;;;;;39.75;36.35;;;;;;;;;;5055201;28;20432;-64
2022/09/10 01:18:53;;;;;;;38.05;34.95;;;;;;;;;;5054889;28;20032;-66
2022/09/10 01:21:25;;;;;;;38.30;34.85;;;;;;;;;;5055147;28;20033;-64
2022/09/10 01:23:51;;;;;;;36.13;33.25;;;;;;;;;;5054945;28;20063;-64
2022/09/10 01:26:44;;;;;;;36.10;33.20;;;;;;;;;;5053615;28;20060;-65
2022/09/10 01:29:10;;;;;;;36.95;33.92;;;;;;;;;;5054726;28;20025;-65
2022/09/10 01:31:36;;;;;;;35.85;32.78;;;;;;;;;;5054966;28;20435;-64
2022/09/10 01:34:12;;;;;;;34.55;31.70;;;;;;;;;;5054926;28;20052;-64
2022/09/10 01:36:39;;;;;;;33.15;30.23;;;;;;;;;;5054939;28;20032;-64
2022/09/10 01:39:06;;;;;;;34.42;31.60;;;;;;;;;;5054334;28;20037;-65
2022/09/10 01:41:32;;;;;;;33.50;30.60;;;;;;;;;;5054720;28;20115;-64
2022/09/10 01:43:58;;;;;;;32.65;29.55;;;;;;;;;;5054786;28;20386;-64
2022/09/10 01:46:40;;;;;;;33.17;29.77;;;;;;;;;;5054837;28;20078;-63
2022/09/10 01:49:09;;;;;;;32.58;29.55;;;;;;;;;;5054237;28;20500;-64
2022/09/10 01:51:42;;;;;;;31.95;29.10;;;;;;;;;;5054825;28;20032;-66
2022/09/10 01:54:32;;;;;;;29.50;26.50;;;;;;;;;;5054408;28;20029;-64
2022/09/10 01:56:58;;;;;;;28.33;24.88;;;;;;;;;;5052848;28;20076;-64
2022/09/10 01:59:33;;;;;;;25.67;22.98;;;;;;;;;;5054137;28;20048;-63
2022/09/10 02:02:08;;;;;;;25.15;22.20;;;;;;;;;;5053090;28;20102;-64
2022/09/10 02:04:34;;;;;;;25.40;22.58;;;;;;;;;;5054446;28;20497;-64
2022/09/10 02:07:03;;;;;;;24.38;21.83;;;;;;;;;;5054130;28;20107;-66
2022/09/10 02:09:29;;;;;;;24.63;20.95;;;;;;;;;;5053935;28;20105;-64
2022/09/10 02:11:55;;;;;;;26.23;21.67;;;;;;;;;;5054043;28;20102;-64
2022/09/10 02:14:21;;;;;;;23.38;19.13;;;;;;;;;;5054243;28;20126;-65
2022/09/10 02:16:52;;;;;;;23.73;17.42;;;;;;;;;;5053992;28;20053;-64
2022/09/10 02:19:18;;;;;;;21.55;18.38;;;;;;;;;;5053772;28;20025;-65
2022/09/10 02:21:44;;;;;;;22.75;17.60;;;;;;;;;;5054036;28;20455;-65
2022/09/10 02:24:11;;;;;;;23.42;18.33;;;;;;;;;;5054008;28;20116;-65
2022/09/10 02:26:39;;;;;;;21.55;17.27;;;;;;;;;;5053644;28;20543;-62
2022/09/10 02:29:05;;;;;;;22.90;16.98;;;;;;;;;;5053661;28;20017;-64
2022/09/10 02:31:31;;;;;;;25.05;16.88;;;;;;;;;;5052651;28;20028;-64
2022/09/10 02:33:57;;;;;;;22.33;16.52;;;;;;;;;;5053637;28;20036;-65
2022/09/10 02:36:24;;;;;;;24.45;16.20;;;;;;;;;;5053695;28;20025;-64
2022/09/10 02:38:55;;;;;;;23.73;15.23;;;;;;;;;;5053507;28;20029;-65
2022/09/10 02:41:24;;;;;;;20.63;15.45;;;;;;;;;;5053521;28;20032;-64
2022/09/10 02:43:50;;;;;;;;;;;;;;;;;;5054218;28;20052;-64
2022/09/10 02:46:16;;;;;;;24.92;16.10;;;;;;;;;;5061170;28;19943;-65
2022/09/10 02:48:42;;;;;;;21.08;15.43;;;;;;;;;;5073188;28;20020;-65
2022/09/10 02:51:08;;;;;;;23.95;15.57;;;;;;;;;;5073503;28;20124;-65
2022/09/10 02:53:34;;;;;;;20.65;14.88;;;;;;;;;;5073458;28;20100;-64
2022/09/10 02:56:01;;;;;;;23.95;15.73;;;;;;;;;;5073345;28;20035;-64
2022/09/10 02:58:30;;;;;;;21.70;14.90;;;;;;;;;;5071707;28;20032;-64
2022/09/10 03:01:04;;;;;;;25.52;15.15;;;;;;;;;;5072737;28;20016;-63
2022/09/10 03:03:30;;;;;;;23.77;14.77;;;;;;;;;;5073257;28;20032;-64
2022/09/10 03:05:56;;;;;;;21.98;15.05;;;;;;;;;;5073205;28;20031;-64
2022/09/10 03:08:22;;;;;;;22.13;15.05;;;;;;;;;;5071514;28;20055;-63
2022/09/10 03:10:48;;;;;;;20.67;14.48;;;;;;;;;;5073055;28;20028;-64
2022/09/10 03:13:14;;;;;;;20.70;14.57;;;;;;;;;;5073056;28;20029;-65
2022/09/10 03:15:42;;;;;;;20.48;13.10;;;;;;;;;;5072909;28;20028;-64
2022/09/10 03:18:08;;;;;;;25.10;14.88;;;;;;;;;;5072952;28;20028;-65
2022/09/10 03:20:35;;;;;;;23.42;13.85;;;;;;;;;;5073048;28;20107;-64
2022/09/10 03:23:02;;;;;;;18.85;13.18;;;;;;;;;;5073027;28;20503;-64
2022/09/10 03:25:28;;;;;;;26.55;15.52;;;;;;;;;;5072583;28;20050;-62
2022/09/10 03:27:54;;;;;;;21.25;14.70;;;;;;;;;;5072459;28;20052;-64
2022/09/10 03:30:21;;;;;;;21.67;14.30;;;;;;;;;;5072527;28;20034;-64
2022/09/10 03:32:47;;;;;;;21.27;15.13;;;;;;;;;;5072739;28;20389;-65
2022/09/10 03:35:15;;;;;;;21.35;15.27;;;;;;;;;;5072643;28;20057;-64
2022/09/10 03:37:42;;;;;;;23.40;15.03;;;;;;;;;;5072314;28;20036;-64
2022/09/10 03:40:09;;;;;;;20.38;14.45;;;;;;;;;;5071404;28;20028;-64
2022/09/10 03:42:35;;;;;;;20.15;14.50;;;;;;;;;;5072600;28;20411;-63
2022/09/10 03:45:01;;;;;;;25.08;15.63;;;;;;;;;;5073791;28;20099;-64
2022/09/10 03:47:27;;;;;;;20.77;15.80;;;;;;;;;;5072327;28;20476;-63
2022/09/10 03:49:53;;;;;;;20.48;15.95;;;;;;;;;;5073803;28;20104;-64
2022/09/10 03:52:21;;;;;;;22.08;15.30;;;;;;;;;;5072777;28;20025;-65
2022/09/10 03:54:49;;;;;;;19.95;14.43;;;;;;;;;;5072566;28;20452;-65
2022/09/10 03:57:15;;;;;;;20.52;14.68;;;;;;;;;;5072235;28;20112;-65
2022/09/10 03:59:41;;;;;;;19.58;14.05;;;;;;;;;;5072596;28;20035;-65
2022/09/10 04:02:08;;;;;;;21.60;14.32;;;;;;;;;;5072200;28;20021;-65
2022/09/10 04:04:36;;;;;;;19.48;14.73;;;;;;;;;;5072922;28;20027;-64
2022/09/10 04:07:02;;;;;;;19.58;13.82;;;;;;;;;;5070966;28;20028;-63
2022/09/10 04:09:28;;;;;;;20.20;13.93;;;;;;;;;;5072205;28;20415;-64
2022/09/10 04:11:55;;;;;;;21.50;14.23;;;;;;;;;;5071867;28;20104;-64
2022/09/10 04:14:20;;;;;;;20.00;14.00;;;;;;;;;;5072770;28;20085;-63
2022/09/10 04:16:46;;;;;;;21.08;14.73;;;;;;;;;;5072653;28;20550;-63
2022/09/10 04:19:12;;;;;;;22.73;14.13;;;;;;;;;;5071230;28;20035;-65
2022/09/10 04:21:38;;;;;;;22.10;13.75;;;;;;;;;;5072622;28;20032;-64
2022/09/10 04:24:05;;;;;;;20.02;13.57;;;;;;;;;;5072497;28;20078;-64
2022/09/10 04:26:31;;;;;;;20.17;14.32;;;;;;;;;;5072416;28;20403;-64
2022/09/10 04:28:57;;;;;;;20.13;14.07;;;;;;;;;;5072092;28;20032;-64
2022/09/10 04:31:23;;;;;;;22.67;14.50;;;;;;;;;;5072544;28;20066;-64
2022/09/10 04:33:49;;;;;;;21.35;14.07;;;;;;;;;;5072459;28;20024;-64
2022/09/10 04:36:16;;;;;;;21.30;14.45;;;;;;;;;;5072970;28;20021;-61
2022/09/10 04:38:42;;;;;;;20.05;13.88;;;;;;;;;;5072214;28;20116;-64
2022/09/10 04:41:08;;;;;;;21.55;14.57;;;;;;;;;;5054630;28;20447;-64
2022/09/10 04:43:34;;;;;;;18.90;13.98;;;;;;;;;;5052165;28;20029;-65
2022/09/10 04:46:00;;;;;;;20.15;15.07;;;;;;;;;;5051783;28;20037;-65
2022/09/10 04:48:26;;;;;;;24.13;14.80;;;;;;;;;;5051854;28;20033;-65
2022/09/10 04:50:53;;;;;;;21.67;15.88;;;;;;;;;;5052289;28;20431;-66
2022/09/10 04:53:20;;;;;;;22.50;15.23;;;;;;;;;;5052767;28;20021;-64
2022/09/10 04:55:47;;;;;;;22.48;15.20;;;;;;;;;;5051675;28;20037;-66
2022/09/10 04:58:13;;;;;;;23.30;16.17;;;;;;;;;;5051670;28;20037;-65
2022/09/10 05:00:40;;;;;;;24.65;16.23;;;;;;;;;;5052039;28;20493;-64
2022/09/10 05:03:06;;;;;;;23.08;16.85;;;;;;;;;;5052178;28;20366;-65
2022/09/10 05:05:33;;;;;;;23.75;15.90;;;;;;;;;;5052255;28;20029;-66
2022/09/10 05:07:59;;;;;;;24.17;15.45;;;;;;;;;;5051983;28;20017;-65
2022/09/10 05:10:26;;;;;;;23.25;16.10;;;;;;;;;;5052312;28;20107;-61
2022/09/10 05:12:52;;;;;;;21.55;15.65;;;;;;;;;;5052451;28;20025;-64
2022/09/10 05:15:18;;;;;;;26.35;16.55;;;;;;;;;;5052184;28;20114;-64
2022/09/10 05:17:44;;;;;;;25.13;16.95;;;;;;;;;;5050676;28;20465;-64
2022/09/10 05:20:10;;;;;;;24.17;17.10;;;;;;;;;;5052387;28;20033;-64
2022/09/10 05:22:36;;;;;;;23.05;15.25;;;;;;;;;;5051655;28;20056;-64
2022/09/10 05:25:03;;;;;;;22.58;16.38;;;;;;;;;;5053897;28;20032;-64
2022/09/10 05:27:29;;;;;;;24.20;18.05;;;;;;;;;;5054868;28;20362;-64
2022/09/10 05:29:56;;;;;;;26.45;17.42;;;;;;;;;;5054769;28;20031;-66
2022/09/10 05:32:22;;;;;;;23.92;16.27;;;;;;;;;;5054993;28;20477;-64
2022/09/10 05:34:48;;;;;;;24.27;17.05;;;;;;;;;;5055261;28;20055;-65
2022/09/10 05:37:14;;;;;;;28.23;18.30;;;;;;;;;;5054699;28;20027;-64
2022/09/10 05:39:40;;;;;;;24.85;17.25;;;;;;;;;;5054683;28;20013;-64
2022/09/10 05:42:06;;;;;;;22.73;17.48;;;;;;;;;;5054505;28;20029;-61
2022/09/10 05:44:32;;;;;;;26.60;18.13;;;;;;;;;;5054515;28;20025;-64
2022/09/10 05:46:58;;;;;;;23.92;16.55;;;;;;;;;;5054545;28;20033;-63
2022/09/10 05:49:25;;;;;;;22.15;16.27;;;;;;;;;;5054602;28;20027;-58
2022/09/10 05:51:51;;;;;;;23.77;16.70;;;;;;;;;;5054465;28;20017;-64
2022/09/10 05:54:17;;;;;;;24.13;17.40;;;;;;;;;;5054558;28;20021;-64
2022/09/10 05:56:43;;;;;;;21.20;15.00;;;;;;;;;;5054400;28;20029;-64
2022/09/10 05:59:09;;;;;;;21.58;15.88;;;;;;;;;;5055155;28;20036;-65
2022/09/10 06:01:35;;;;;;;25.27;15.90;;;;;;;;;;5054623;28;20025;-63
2022/09/10 06:04:02;;;;;;;21.27;15.45;;;;;;;;;;5054208;28;20033;-65
2022/09/10 06:06:28;;;;;;;22.42;15.82;;;;;;;;;;5053997;28;20544;-65
2022/09/10 06:08:54;;;;;;;24.90;15.70;;;;;;;;;;5053873;28;20100;-65
2022/09/10 06:11:21;;;;;;;19.63;14.27;;;;;;;;;;5053110;28;20021;-65
2022/09/10 06:13:47;;;;;;;22.13;14.05;;;;;;;;;;5052897;28;20025;-64
2022/09/10 06:16:13;;;;;;;22.27;14.60;;;;;;;;;;5054127;28;20021;-65
2022/09/10 06:18:40;;;;;;;21.90;13.18;;;;;;;;;;5053500;28;20032;-65
2022/09/10 06:21:14;;;;;;;20.38;13.82;;;;;;;;;;5053878;28;20048;-66
2022/09/10 06:23:40;;;;;;;20.23;14.52;;;;;;;;;;5054021;28;20031;-66
2022/09/10 06:26:09;;;;;;;20.52;13.52;;;;;;;;;;5054806;28;20032;-65
2022/09/10 06:28:35;;;;;;;23.98;16.10;;;;;;;;;;5054325;28;20017;-66
2022/09/10 06:31:03;;;;;;;22.40;15.07;;;;;;;;;;5054656;28;20500;-65
2022/09/10 06:33:29;;;;;;;22.52;15.27;;;;;;;;;;5054666;28;20491;-66
2022/09/10 06:35:55;;;;;;;24.38;16.20;;;;;;;;;;5053353;28;20033;-66
2022/09/10 06:38:22;;;;;;;25.40;17.05;;;;;;;;;;5053915;28;20021;-65
2022/09/10 06:40:55;;;;;;;22.83;15.95;;;;;;;;;;5054181;28;20053;-65
2022/09/10 06:43:30;;;;;;;24.48;16.30;;;;;;;;;;5054258;28;20540;-65
2022/09/10 06:45:57;;;;;;;23.02;16.13;;;;;;;;;;5053980;28;20037;-65
2022/09/10 06:48:26;;;;;;;24.67;16.98;;;;;;;;;;5053393;28;20021;-65
2022/09/10 06:50:56;;;;;;;23.02;17.73;;;;;;;;;;5053523;28;20029;-65
2022/09/10 06:53:23;;;;;;;22.35;15.85;;;;;;;;;;5052168;28;20021;-65
2022/09/10 06:55:50;;;;;;;25.65;16.05;;;;;;;;;;5052218;28;20041;-65
2022/09/10 06:58:16;;;;;;;24.20;16.85;;;;;;;;;;5053051;28;20037;-66
2022/09/10 07:00:43;;;;;;;22.10;15.88;;;;;;;;;;5053361;28;20075;-65
2022/09/10 07:03:09;;;;;;;21.92;15.43;;;;;;;;;;5053000;28;20021;-65
2022/09/10 07:05:35;;;;;;;24.02;17.75;;;;;;;;;;5053122;28;20032;-65
2022/09/10 07:08:01;;;;;;;30.45;27.63;;;;;;;;;;5052667;28;20069;-66
2022/09/10 07:10:30;;;;;;;29.75;26.65;;;;;;;;;;5052904;28;20461;-68
2022/09/10 07:12:56;;;;;;;29.67;26.77;;;;;;;;;;5052856;28;20108;-66
2022/09/10 07:15:22;;;;;;;35.10;31.80;;;;;;;;;;5053078;28;20059;-66
2022/09/10 07:17:48;;;;;;;44.78;35.95;;;;;;;;;;5051316;28;20432;-66
2022/09/10 07:20:14;;;;;;;41.25;37.50;;;;;;;;;;5053029;28;20049;-66
2022/09/10 07:22:42;;;;;;;39.80;36.10;;;;;;;;;;5052900;28;20036;-66
2022/09/10 07:25:08;;;;;;;45.60;41.72;;;;;;;;;;5052555;28;20029;-65
2022/09/10 07:27:34;;;;;;;49.53;45.55;;;;;;;;;;5052262;28;20500;-66
2022/09/10 07:30:00;;;;;;;47.47;43.38;;;;;;;;;;5052550;28;20025;-66
2022/09/10 07:32:28;;;;;;;45.42;41.47;;;;;;;;;;5051750;28;20116;-67
2022/09/10 07:34:54;;;;;;;48.42;44.42;;;;;;;;;;5052822;28;20025;-65
2022/09/10 07:37:21;;;;;;;47.50;43.50;;;;;;;;;;5052301;28;20025;-64
2022/09/10 07:39:47;;;;;;;48.10;43.92;;;;;;;;;;5052442;28;20017;-65
2022/09/10 07:42:13;;;;;;;44.20;40.42;;;;;;;;;;5051133;28;20099;-65
2022/09/10 07:44:39;;;;;;;47.80;43.67;;;;;;;;;;5052041;28;20100;-64
2022/09/10 07:47:05;;;;;;;46.92;42.88;;;;;;;;;;5050482;28;20473;-64
2022/09/10 07:49:31;;;;;;;48.42;44.20;;;;;;;;;;5052147;28;20500;-63
2022/09/10 07:51:58;;;;;;;51.13;47.03;;;;;;;;;;5052422;28;20432;-63
2022/09/10 07:54:24;;;;;;;46.35;42.65;;;;;;;;;;5052191;28;20021;-62
2022/09/10 07:56:50;;;;;;;45.88;41.83;;;;;;;;;;5052185;28;20036;-63
2022/09/10 07:59:16;;;;;;;45.92;41.83;;;;;;;;;;5052137;28;20033;-64
2022/09/10 08:01:43;;;;;;;45.55;41.75;;;;;;;;;;5052157;28;20025;-62
2022/09/10 08:04:09;;;;;;;42.90;39.30;;;;;;;;;;5050980;28;20025;-63
2022/09/10 08:06:35;;;;;;;43.38;39.58;;;;;;;;;;5052246;28;20044;-64
2022/09/10 08:09:04;;;;;;;41.65;38.33;;;;;;;;;;5050626;28;20025;-65
2022/09/10 08:11:31;;;;;;;43.17;39.67;;;;;;;;;;5052075;28;20098;-64
2022/09/10 08:13:59;;;;;;;39.97;36.67;;;;;;;;;;5051925;28;20025;-64
2022/09/10 08:16:26;;;;;;;39.67;36.10;;;;;;;;;;5050694;28;20036;-64
2022/09/10 08:18:55;;;;;;;36.95;33.75;;;;;;;;;;5051459;28;20032;-63
2022/09/10 08:21:21;;;;;;;35.30;32.38;;;;;;;;;;5051148;28;20036;-62
2022/09/10 08:23:52;;;;;;;35.58;32.58;;;;;;;;;;5051369;28;20096;-63
2022/09/10 08:26:22;;;;;;;34.90;32.10;;;;;;;;;;5051697;28;20074;-63
2022/09/10 08:28:48;;;;;;;35.45;32.33;;;;;;;;;;5051361;28;20021;-62
2022/09/10 08:31:15;;;;;;;33.42;30.58;;;;;;;;;;5051760;28;20048;-63
2022/09/10 08:33:41;;;;;;;35.63;32.45;;;;;;;;;;5051822;28;20086;-62
2022/09/10 08:36:09;;;;;;;32.67;29.98;;;;;;;;;;5051223;28;20035;-64
2022/09/10 08:38:37;;;;;;;32.75;29.80;;;;;;;;;;5050713;28;20032;-62
2022/09/10 08:41:24;;;;;;;33.03;30.07;;;;;;;;;;5050011;28;20025;-62
2022/09/10 08:44:02;;;;;;;31.23;28.40;;;;;;;;;;5048909;28;20048;-58
2022/09/10 08:46:31;;;;;;;32.78;29.83;;;;;;;;;;5048205;28;20033;-61
2022/09/10 08:49:16;;;;;;;33.13;30.23;;;;;;;;;;5050676;28;20037;-63
2022/09/10 08:51:50;;;;;;;33.60;30.70;;;;;;;;;;5050196;28;20028;-61
2022/09/10 08:54:19;;;;;;;32.63;29.55;;;;;;;;;;5049342;28;20112;-64
2022/09/10 08:56:46;;;;;;;32.75;29.85;;;;;;;;;;5051878;28;20005;-64
2022/09/10 08:59:21;;;;;;;34.15;30.85;;;;;;;;;;5054159;28;20584;-62
2022/09/10 09:01:50;;;;;;;34.65;31.75;;;;;;;;;;5055994;28;20104;-64
2022/09/10 09:04:37;;;;;;;33.38;30.27;;;;;;;;;;5055695;28;20580;-64
2022/09/10 09:07:09;;;;;;;32.42;29.33;;;;;;;;;;5055888;28;20084;-63
2022/09/10 09:09:35;;;;;;;32.22;29.33;;;;;;;;;;5056034;28;20033;-63
2022/09/10 09:12:21;;;;;;;31.92;29.08;;;;;;;;;;5055682;28;20025;-62
2022/09/10 09:14:47;;;;;;;30.60;27.88;;;;;;;;;;5054473;28;20040;-63
2022/09/10 09:17:25;;;;;;;30.50;27.55;;;;;;;;;;5055179;28;20452;-64
2022/09/10 09:20:09;;;;;;;30.38;27.30;;;;;;;;;;5055636;28;20476;-63
2022/09/10 09:22:45;;;;;;;29.10;26.00;;;;;;;;;;5054695;28;20067;-64
2022/09/10 09:25:21;;;;;;;28.70;25.83;;;;;;;;;;5055564;28;20025;-61
2022/09/10 09:27:47;;;;;;;28.63;25.70;;;;;;;;;;5054727;28;20025;-61
2022/09/10 09:30:21;;;;;;;27.25;24.73;;;;;;;;;;5055300;28;20482;-63
2022/09/10 09:32:48;;;;;;;28.05;25.02;;;;;;;;;;5055296;28;20095;-62
2022/09/10 09:35:27;;;;;;;27.00;24.30;;;;;;;;;;5055298;28;20025;-63
2022/09/10 09:37:53;;;;;;;;;;;;;;;;;;5055013;28;20036;-63
2022/09/10 09:40:36;;;;;;;24.67;22.17;;;;;;;;;;5055304;28;19904;-63
2022/09/10 09:43:10;;;;;;;22.77;20.10;;;;;;;;;;5055080;28;20020;-63
2022/09/10 09:45:42;;;;;;;24.33;21.83;;;;;;;;;;5054881;28;20036;-63
2022/09/10 09:48:11;;;;;;;22.33;19.45;;;;;;;;;;5053088;28;20079;-64
2022/09/10 09:50:38;;;;;;;25.58;17.45;;;;;;;;;;5055092;28;20082;-65
2022/09/10 09:53:04;;;;;;;21.33;16.40;;;;;;;;;;5054351;28;20096;-65
2022/09/10 09:55:41;;;;;;;21.55;16.25;;;;;;;;;;5054741;28;20044;-64
2022/09/10 09:58:28;;;;;;;21.15;14.80;;;;;;;;;;5054447;28;20029;-64
2022/09/10 10:01:03;;;;;;;22.80;16.05;;;;;;;;;;5054415;28;20051;-64
2022/09/10 10:03:47;;;;;;;20.73;15.68;;;;;;;;;;5054644;28;20029;-63
2022/09/10 10:06:13;;;;;;;20.40;14.95;;;;;;;;;;5056702;28;20021;-63
2022/09/10 10:08:43;;;;;;;22.60;15.15;;;;;;;;;;5061664;28;20096;-62
2022/09/10 10:11:13;;;;;;;19.48;14.00;;;;;;;;;;5061262;28;20052;-63
2022/09/10 10:13:43;;;;;;;20.05;13.88;;;;;;;;;;5061898;28;20025;-64
2022/09/10 10:16:30;;;;;;;20.10;12.68;;;;;;;;;;5062027;28;20031;-63
2022/09/10 10:18:56;;;;;;;18.55;12.55;;;;;;;;;;5057682;28;20033;-63
2022/09/10 10:21:35;;;;;;;19.40;13.43;;;;;;;;;;5057153;28;20029;-63
2022/09/10 10:24:02;;;;;;;18.77;12.82;;;;;;;;;;5053523;28;20403;-63
2022/09/10 10:26:31;;;;;;;18.13;11.77;;;;;;;;;;5054289;28;20087;-63
2022/09/10 10:29:05;;;;;;;18.00;12.18;;;;;;;;;;5054537;28;20029;-63
2022/09/10 10:31:37;;;;;;;18.38;13.00;;;;;;;;;;5068351;28;20419;-63
2022/09/10 10:34:13;;;;;;;19.83;14.15;;;;;;;;;;5074073;28;20025;-63
2022/09/10 10:36:39;;;;;;;18.60;13.32;;;;;;;;;;5074067;28;20025;-64
2022/09/10 10:39:15;;;;;;;18.88;13.18;;;;;;;;;;5073530;28;20098;-63
2022/09/10 10:41:47;;;;;;;19.35;12.45;;;;;;;;;;5069064;28;20021;-64
2022/09/10 10:44:19;;;;;;;17.27;11.85;;;;;;;;;;5053958;28;20116;-64
2022/09/10 10:46:52;;;;;;;15.70;10.40;;;;;;;;;;5053483;28;20021;-62
2022/09/10 10:49:39;;;;;;;18.42;10.70;;;;;;;;;;5053900;28;20017;-64
2022/09/10 10:52:09;;;;;;;20.77;11.73;;;;;;;;;;5046610;28;20103;-64
2022/09/10 10:54:36;;;;;;;18.25;10.82;;;;;;;;;;5053705;28;20440;-63
2022/09/10 10:57:14;;;;;;;18.25;10.68;;;;;;;;;;5053098;28;20100;-62
2022/09/10 10:59:52;;;;;;;16.52;10.52;;;;;;;;;;5053791;28;20031;-63
2022/09/10 11:02:31;;;;;;;17.73;9.95;;;;;;;;;;5053716;28;20115;-63
2022/09/10 11:04:57;;;;;;;;;;;;;;;;;;5052152;28;20120;-63
2022/09/10 11:07:29;;;;;;;19.08;10.45;;;;;;;;;;5053048;28;19940;-62
2022/09/10 11:10:01;;;;;;;16.58;10.00;;;;;;;;;;5053562;28;20104;-64
2022/09/10 11:12:41;;;;;;;19.38;10.93;;;;;;;;;;5053452;28;20029;-64
2022/09/10 11:15:29;;;;;;;19.65;11.50;;;;;;;;;;5052182;28;20037;-63
2022/09/10 11:18:01;;;;;;;18.03;11.23;;;;;;;;;;5052686;28;20031;-63
2022/09/10 11:20:33;;;;;;;17.73;10.73;;;;;;;;;;5051615;28;20267;-63
2022/09/10 11:23:08;;;;;;;19.92;12.45;;;;;;;;;;5053254;28;20033;-61
2022/09/10 11:25:38;;;;;;;18.65;11.98;;;;;;;;;;5053466;28;20085;-65
2022/09/10 11:28:12;;;;;;;18.35;11.70;;;;;;;;;;5053095;28;20025;-64
2022/09/10 11:30:39;;;;;;;18.95;11.73;;;;;;;;;;5053036;28;20095;-64
2022/09/10 11:33:15;;;;;;;18.35;12.00;;;;;;;;;;5051383;28;20378;-64
2022/09/10 11:35:45;;;;;;;19.05;13.60;;;;;;;;;;5053030;28;20025;-64
2022/09/10 11:38:11;;;;;;;19.58;12.73;;;;;;;;;;5072263;28;20024;-63
2022/09/10 11:40:51;;;;;;;21.80;13.98;;;;;;;;;;5072419;28;20481;-65
2022/09/10 11:43:26;;;;;;;20.67;14.57;;;;;;;;;;5054744;28;20035;-62
2022/09/10 11:45:57;;;;;;;21.80;13.60;;;;;;;;;;5051990;28;20439;-63
2022/09/10 11:48:27;;;;;;;18.77;14.23;;;;;;;;;;5051093;28;20413;-64
2022/09/10 11:51:16;;;;;;;19.25;13.75;;;;;;;;;;5052789;28;20024;-64
2022/09/10 11:53:43;;;;;;;20.63;15.35;;;;;;;;;;5047315;28;20032;-65
2022/09/10 11:56:09;;;;;;;22.08;15.15;;;;;;;;;;5053041;28;20670;-63
2022/09/10 11:58:50;;;;;;;20.40;13.75;;;;;;;;;;5053252;28;20349;-62
2022/09/10 12:01:26;;;;;;;18.50;13.10;;;;;;;;;;5052494;28;20025;-64
2022/09/10 12:03:54;;;;;;;18.95;12.40;;;;;;;;;;5052412;28;20025;-63
2022/09/10 12:06:25;;;;;;;20.65;12.52;;;;;;;;;;5052557;28;20029;-63
2022/09/10 12:08:51;;;;;;;19.10;12.52;;;;;;;;;;5051907;28;20021;-64
2022/09/10 12:11:27;;;;;;;20.17;15.10;;;;;;;;;;5052124;28;20032;-63
2022/09/10 12:13:53;;;;;;;19.02;13.23;;;;;;;;;;5052010;28;20044;-64
2022/09/10 12:16:25;;;;;;;17.80;13.75;;;;;;;;;;5050685;28;20032;-64
2022/09/10 12:18:54;;;;;;;18.77;14.00;;;;;;;;;;5051977;28;20028;-64
2022/09/10 12:21:20;;;;;;;;;;;;;;;;;;5052708;28;20021;-66
2022/09/10 12:23:46;;;;;;;20.10;14.48;;;;;;;;;;5052504;28;19911;-66
2022/09/10 12:26:16;;;;;;;19.35;15.23;;;;;;;;;;5051350;28;20397;-65
2022/09/10 12:28:41;;;;;;;18.95;14.93;;;;;;;;;;5052138;28;20474;-64
2022/09/10 12:31:08;;;;;;;21.35;14.52;;;;;;;;;;5060065;28;20036;-65
2022/09/10 12:33:36;;;;;;;21.25;16.98;;;;;;;;;;5069924;28;20031;-63
2022/09/10 12:36:02;;;;;;;20.85;14.65;;;;;;;;;;5071934;28;20108;-65
2022/09/10 12:38:47;;;;;;;20.45;15.07;;;;;;;;;;5071835;28;20032;-64
2022/09/10 12:41:34;;;;;;;20.33;16.08;;;;;;;;;;5071452;28;20434;-64
2022/09/10 12:44:24;;;;;;;21.02;15.70;;;;;;;;;;4859667;28;10000513;-61
2022/09/10 12:47:09;;;;;;;23.15;16.67;;;;;;;;;;5044986;28;20303;-64
2022/09/10 12:49:42;;;;;;;23.85;18.13;;;;;;;;;;5048916;28;20124;-63
2022/09/10 12:52:12;;;;;;;24.50;18.00;;;;;;;;;;5048868;28;20055;-63
2022/09/10 12:54:47;;;;;;;23.23;19.52;;;;;;;;;;5047444;28;20120;-64
2022/09/10 12:57:17;;;;;;;23.17;20.73;;;;;;;;;;5049060;28;20389;-61
2022/09/10 12:59:46;;;;;;;25.95;22.98;;;;;;;;;;5048385;28;20473;-65
2022/09/10 13:02:20;;;;;;;25.25;22.55;;;;;;;;;;5049135;28;20045;-64
2022/09/10 13:04:52;;;;;;;27.63;24.70;;;;;;;;;;5048198;28;20032;-63
2022/09/10 13:07:20;;;;;;;26.55;23.42;;;;;;;;;;5045704;28;20075;-63
2022/09/10 13:09:55;;;;;;;27.90;25.07;;;;;;;;;;5048509;28;20028;-63
2022/09/10 13:12:23;;;;;;;28.20;23.33;;;;;;;;;;5047677;28;20060;-64
2022/09/10 13:14:52;;;;;;;26.27;23.50;;;;;;;;;;5047553;28;20139;-64
2022/09/10 13:17:37;;;;;;;25.58;23.00;;;;;;;;;;5046943;28;20562;-63
2022/09/10 13:20:21;;;;;;;24.40;21.90;;;;;;;;;;5048755;28;20029;-64
2022/09/10 13:23:04;;;;;;;24.02;21.63;;;;;;;;;;5047621;28;20027;-64
2022/09/10 13:25:35;;;;;;;24.00;21.50;;;;;;;;;;5047938;28;20040;-62
2022/09/10 13:28:01;;;;;;;22.50;20.20;;;;;;;;;;5048052;28;20138;-62
2022/09/10 13:30:28;;;;;;;21.95;19.65;;;;;;;;;;5048788;28;20028;-64
2022/09/10 13:32:54;;;;;;;22.48;20.17;;;;;;;;;;5048794;28;20132;-64
2022/09/10 13:35:40;;;;;;;22.10;19.70;;;;;;;;;;5048767;28;20081;-64
2022/09/10 13:38:18;;;;;;;21.23;19.02;;;;;;;;;;5048289;28;20499;-64
2022/09/10 13:40:56;;;;;;;21.58;19.23;;;;;;;;;;5048586;28;20062;-64
2022/09/10 13:43:47;;;;;;;21.48;19.38;;;;;;;;;;5048572;28;20668;-64
2022/09/10 13:46:20;;;;;;;23.80;19.38;;;;;;;;;;5048848;28;20064;-63
2022/09/10 13:48:51;;;;;;;21.42;19.15;;;;;;;;;;5051869;28;20024;-63
2022/09/10 13:51:23;;;;;;;22.23;19.65;;;;;;;;;;5052015;28;20554;-63
2022/09/10 13:53:49;;;;;;;21.67;19.45;;;;;;;;;;5051509;28;20033;-62
2022/09/10 13:56:23;;;;;;;22.42;20.05;;;;;;;;;;5051670;28;20025;-64
2022/09/10 13:58:50;;;;;;;21.50;19.30;;;;;;;;;;5051605;28;20025;-64
2022/09/10 14:01:17;;;;;;;22.02;19.75;;;;;;;;;;5051532;28;20115;-64
2022/09/10 14:03:44;;;;;;;22.98;20.58;;;;;;;;;;5051891;28;20093;-64
2022/09/10 14:06:20;;;;;;;21.92;19.63;;;;;;;;;;5051685;28;20033;-64
2022/09/10 14:08:51;;;;;;;21.60;19.00;;;;;;;;;;5051490;28;20033;-64
2022/09/10 14:11:25;;;;;;;22.20;19.80;;;;;;;;;;5052236;28;20104;-60
2022/09/10 14:14:04;;;;;;;22.30;19.90;;;;;;;;;;5052019;28;20025;-64
2022/09/10 14:16:33;;;;;;;21.95;19.40;;;;;;;;;;5052056;28;20024;-64
2022/09/10 14:19:02;;;;;;;22.05;19.38;;;;;;;;;;5051306;28;20029;-62
2022/09/10 14:21:28;;;;;;;21.27;18.75;;;;;;;;;;5051572;28;20028;-64
2022/09/10 14:23:55;;;;;;;20.45;17.33;;;;;;;;;;5050258;28;20025;-63
2022/09/10 14:26:26;;;;;;;20.33;16.67;;;;;;;;;;5051088;28;20496;-63
2022/09/10 14:28:59;;;;;;;20.70;17.17;;;;;;;;;;5051243;28;20112;-59
2022/09/10 14:31:25;;;;;;;18.92;16.23;;;;;;;;;;5049402;28;20063;-63
2022/09/10 14:33:52;;;;;;;18.83;16.30;;;;;;;;;;5051474;28;20059;-64